This is the latest recevied weather packets stored in our database for station/object WA4IKQ. If no packets are shown the sender has not sent any weather packets the latest 10 day(s).
| Time | Temp. | Humidity | Pressure | Rain* | Wind** | Luminosity | Snow |
|---|---|---|---|---|---|---|---|
| 1777904301 | 24.44° C | 52% | 1017.4 hPa | 0 mm | 3.13 m/s, 18° | - | - |
| 1777904105 | 24.44° C | 52% | 1017.4 hPa | 0 mm | 3.13 m/s, 18° | - | - |
| 1777900985 | 22.78° C | 64% | 1017 hPa | 0 mm | 1.79 m/s, 11° | - | - |
| 1777900794 | 22.78° C | 64% | 1017 hPa | 0 mm | 1.79 m/s, 11° | - | - |
| 1777900356 | 22.78° C | 66% | 1016.9 hPa | 0 mm | 2.24 m/s, 290° | - | - |
| 1777900195 | 22.78° C | 66% | 1016.9 hPa | 0 mm | 2.24 m/s, 290° | - | - |
| 1777899623 | 21.67° C | 69% | 1016.7 hPa | 0 mm | 1.34 m/s, 11° | - | - |
| 1777899596 | 22.22° C | 69% | 1016.8 hPa | 0 mm | 3.13 m/s, 359° | - | - |
| 1777899296 | 21.67° C | 69% | 1016.7 hPa | 0 mm | 1.34 m/s, 11° | - | - |
| 1777898844 | 21.11° C | 70% | 1016.7 hPa | 0 mm | 2.68 m/s, 10° | - | - |
| 1777898711 | 21.11° C | 72% | 1016.6 hPa | 0 mm | 2.24 m/s, 20° | - | - |
| 1777898693 | 21.11° C | 70% | 1016.7 hPa | 0 mm | 2.68 m/s, 10° | - | - |
| 1777898395 | 21.11° C | 72% | 1016.6 hPa | 0 mm | 2.24 m/s, 20° | - | - |
| 1777898094 | 20.56° C | 73% | 1016.6 hPa | 0 mm | 1.79 m/s, 18° | - | - |
| 1777897695 | 20° C | 75% | 1016.5 hPa | 0 mm | 0.89 m/s, 350° | - | - |
| 1777897535 | 20° C | 76% | 1016.4 hPa | 0 mm | 0.89 m/s, 332° | - | - |
| 1777897515 | 20° C | 75% | 1016.5 hPa | 0 mm | 0.89 m/s, 350° | - | - |
| 1777897201 | 20° C | 76% | 1016.4 hPa | 0 mm | 0.89 m/s, 332° | - | - |
| 1777897117 | 20° C | 77% | 1016.3 hPa | 0 mm | 2.24 m/s, 333° | - | - |
| 1777896893 | 20° C | 77% | 1016.3 hPa | 0 mm | 2.24 m/s, 333° | - | - |
| 1777896867 | 19.44° C | 78% | 1016.3 hPa | 0 mm | 1.34 m/s, 359° | - | - |
| 1777896593 | 19.44° C | 78% | 1016.3 hPa | 0 mm | 1.34 m/s, 359° | - | - |
| 1777896314 | 19.44° C | 80% | 1016.3 hPa | 0 mm | 0.89 m/s, 359° | - | - |
| 1777896202 | 18.89° C | 81% | 1016.3 hPa | 0 mm | 0.89 m/s, 343° | - | - |
| 1777896100 | 18.89° C | 82% | 1016.2 hPa | 0 mm | 0 m/s | - | - |
* Rain latest hour (hover to see other rain measurements)
** Current wind speed in m/s (hover to see current wind gust speed)